Time;durP1;ratioP1;P1;durP2;ratioP2;P2;SDS_P1;SDS_P2;PMS_P1;PMS_P2;Temp;Humidity;BMP_temperature;BMP_pressure;BME280_temperature;BME280_humidity;BME280_pressure;Samples;Min_cycle;Max_cycle;Signal;HPM_P1;HPM_P2
2022/04/18 00:01:48;;;;;;;5.50;2.13;;;6.40;46.70;;;;;;4986427;28;20054;-58
2022/04/18 00:04:13;;;;;;;6.65;1.83;;;6.40;46.90;;;;;;4983714;28;20051;-58
2022/04/18 00:06:39;;;;;;;2.53;1.55;;;6.30;46.90;;;;;;4988660;28;20098;-59
2022/04/18 00:09:05;;;;;;;3.33;2.00;;;6.30;46.90;;;;;;4983980;28;20088;-57
2022/04/18 00:11:32;;;;;;;2.58;1.73;;;6.30;46.90;;;;;;4984209;28;20410;-59
2022/04/18 00:13:58;;;;;;;5.10;2.28;;;6.20;46.90;;;;;;4961547;28;20041;-59
2022/04/18 00:16:24;;;;;;;4.57;2.03;;;6.20;46.90;;;;;;4984447;28;20126;-59
2022/04/18 00:18:50;;;;;;;3.55;1.88;;;6.20;47.10;;;;;;4980798;28;20514;-59
2022/04/18 00:21:15;;;;;;;4.60;1.90;;;6.20;47.20;;;;;;4979942;28;20034;-57
2022/04/18 00:23:43;;;;;;;3.55;2.35;;;6.10;47.20;;;;;;4961572;28;20035;-57
2022/04/18 00:26:09;;;;;;;3.33;1.55;;;6.10;47.40;;;;;;4980110;28;20494;-59
2022/04/18 00:28:35;;;;;;;4.15;2.05;;;6.10;47.50;;;;;;4988560;28;20026;-57
2022/04/18 00:31:00;;;;;;;3.63;1.40;;;6.00;47.50;;;;;;4977164;28;20030;-57
2022/04/18 00:33:26;;;;;;;2.60;1.67;;;6.00;47.60;;;;;;4991431;28;20104;-59
2022/04/18 00:35:52;;;;;;;2.92;1.60;;;6.00;47.80;;;;;;4985837;28;20022;-57
2022/04/18 00:38:18;;;;;;;2.42;1.33;;;6.00;47.80;;;;;;4986401;28;20033;-59
2022/04/18 00:40:44;;;;;;;2.63;1.50;;;5.90;48.00;;;;;;4981855;28;20023;-58
2022/04/18 00:43:10;;;;;;;3.20;1.90;;;5.90;48.00;;;;;;4985146;28;20050;-59
2022/04/18 00:45:36;;;;;;;2.85;1.55;;;5.80;48.10;;;;;;4986139;28;20101;-57
2022/04/18 00:48:02;;;;;;;2.97;1.80;;;5.80;48.10;;;;;;4990402;28;20066;-58
2022/04/18 00:50:29;;;;;;;3.13;1.50;;;5.80;48.30;;;;;;4984976;28;20058;-59
2022/04/18 00:52:55;;;;;;;5.47;1.40;;;5.70;48.30;;;;;;4983630;28;20027;-58
2022/04/18 00:55:24;;;;;;;4.80;1.67;;;5.70;48.40;;;;;;4987876;28;20048;-59
2022/04/18 00:57:52;;;;;;;2.13;1.50;;;5.70;48.60;;;;;;4988950;28;20141;-58
2022/04/18 01:00:18;;;;;;;3.08;1.80;;;5.60;48.60;;;;;;4984215;28;20146;-58
2022/04/18 01:02:44;;;;;;;4.22;1.90;;;5.60;48.40;;;;;;4989133;28;20026;-59
2022/04/18 01:05:10;;;;;;;2.75;1.58;;;5.60;48.50;;;;;;4984111;28;20033;-57
2022/04/18 01:07:36;;;;;;;4.05;1.75;;;5.50;48.50;;;;;;4987154;28;20065;-59
2022/04/18 01:10:04;;;;;;;3.38;1.90;;;5.50;48.60;;;;;;4987003;28;20041;-59
2022/04/18 01:12:30;;;;;;;2.33;1.60;;;5.50;48.80;;;;;;4965097;28;20057;-57
2022/04/18 01:14:55;;;;;;;2.72;1.80;;;5.50;48.70;;;;;;4985375;28;20509;-59
2022/04/18 01:17:21;;;;;;;3.42;1.63;;;5.40;49.20;;;;;;4983495;28;20382;-58
2022/04/18 01:19:47;;;;;;;3.58;1.80;;;5.40;48.70;;;;;;4989742;28;20508;-58
2022/04/18 01:22:13;;;;;;;2.65;1.50;;;5.40;48.80;;;;;;4989758;28;20038;-59
2022/04/18 01:30:09;;;;;;;2.92;1.77;;;5.30;48.80;;;;;;4991831;28;20037;-57
2022/04/18 01:32:35;;;;;;;4.65;1.90;;;5.30;48.80;;;;;;4987860;28;20026;-59
2022/04/18 01:35:01;;;;;;;3.85;1.90;;;5.30;48.90;;;;;;4989856;28;20142;-57
2022/04/18 01:37:26;;;;;;;5.65;1.70;;;5.30;48.80;;;;;;4986359;28;20035;-59
2022/04/18 01:39:52;;;;;;;6.38;1.70;;;5.20;48.90;;;;;;4985991;28;20083;-57
2022/04/18 01:42:18;;;;;;;3.92;1.80;;;5.20;49.00;;;;;;4986424;28;20023;-57
2022/04/18 01:44:43;;;;;;;2.88;1.90;;;5.20;49.10;;;;;;4986636;28;20087;-58
2022/04/18 01:47:09;;;;;;;3.22;2.10;;;5.20;49.20;;;;;;4986456;28;20117;-57
2022/04/18 01:49:35;;;;;;;3.33;1.73;;;5.10;49.30;;;;;;4986929;28;20031;-58
2022/04/18 01:52:00;;;;;;;3.05;1.83;;;5.10;49.30;;;;;;4989584;28;20033;-59
2022/04/18 01:54:26;;;;;;;5.57;1.92;;;5.10;49.50;;;;;;4986986;28;20568;-58
2022/04/18 01:56:52;;;;;;;2.75;1.83;;;5.10;49.50;;;;;;4986621;28;20406;-59
2022/04/18 01:59:17;;;;;;;2.83;2.00;;;5.10;49.60;;;;;;4984204;28;20086;-59
2022/04/18 02:01:43;;;;;;;3.53;1.83;;;5.00;49.50;;;;;;4983403;28;20475;-58
2022/04/18 02:04:09;;;;;;;5.43;2.20;;;5.00;49.50;;;;;;4985890;28;20026;-57
2022/04/18 02:06:34;;;;;;;2.63;1.80;;;5.00;50.10;;;;;;4986171;28;20117;-57
2022/04/18 02:09:01;;;;;;;2.13;1.50;;;5.00;49.50;;;;;;4984195;28;20466;-58
2022/04/18 02:11:27;;;;;;;4.47;1.80;;;5.00;49.50;;;;;;4986896;28;20027;-57
2022/04/18 02:13:52;;;;;;;4.28;2.10;;;5.00;49.50;;;;;;4985126;28;20421;-59
2022/04/18 02:16:19;;;;;;;3.20;1.60;;;4.90;49.50;;;;;;4981738;28;20134;-58
2022/04/18 02:18:46;;;;;;;2.88;1.75;;;4.90;49.60;;;;;;4984200;28;20035;-58
2022/04/18 02:21:12;;;;;;;3.35;1.80;;;4.90;49.60;;;;;;4985468;28;20031;-57
2022/04/18 02:23:40;;;;;;;2.40;1.92;;;4.90;49.80;;;;;;4986196;28;20034;-59
2022/04/18 02:26:08;;;;;;;3.20;1.88;;;4.90;50.00;;;;;;4980952;28;20043;-59
2022/04/18 02:28:34;;;;;;;6.35;2.05;;;4.80;49.80;;;;;;4982912;28;20043;-58
2022/04/18 02:30:59;;;;;;;2.38;1.60;;;4.80;50.10;;;;;;4981481;28;20058;-59
2022/04/18 02:33:25;;;;;;;4.80;2.10;;;4.80;50.10;;;;;;4988583;28;20050;-58
2022/04/18 02:35:51;;;;;;;4.25;2.05;;;4.70;50.00;;;;;;4964158;28;20043;-59
2022/04/18 02:38:17;;;;;;;6.10;2.00;;;4.80;50.20;;;;;;4985792;28;20042;-57
2022/04/18 02:40:44;;;;;;;3.78;2.30;;;4.70;50.10;;;;;;4985342;28;20030;-57
2022/04/18 02:43:10;;;;;;;4.13;2.22;;;4.70;50.20;;;;;;4984424;28;20023;-59
2022/04/18 02:45:35;;;;;;;4.45;1.77;;;4.70;50.20;;;;;;4981872;28;20461;-59
2022/04/18 02:48:02;;;;;;;5.25;2.10;;;4.70;50.10;;;;;;4984016;28;20077;-58
2022/04/18 02:50:28;;;;;;;3.38;1.85;;;4.70;50.20;;;;;;4988046;28;20030;-59
2022/04/18 02:52:53;;;;;;;3.65;2.10;;;4.60;50.20;;;;;;4990635;28;20027;-58
2022/04/18 02:55:19;;;;;;;3.80;2.00;;;4.60;50.20;;;;;;4988263;28;20030;-58
2022/04/18 02:57:45;;;;;;;4.25;2.13;;;4.60;50.30;;;;;;4982382;28;20027;-58
2022/04/18 03:00:11;;;;;;;6.60;1.95;;;4.60;50.40;;;;;;4980556;28;20082;-58
2022/04/18 03:02:38;;;;;;;5.75;2.13;;;4.60;50.40;;;;;;4982540;28;20105;-58
2022/04/18 03:05:05;;;;;;;3.88;1.80;;;4.60;50.50;;;;;;4988468;28;20042;-59
2022/04/18 03:07:31;;;;;;;3.85;2.00;;;4.60;50.60;;;;;;4981674;28;20106;-57
2022/04/18 03:09:57;;;;;;;2.17;1.80;;;4.60;50.50;;;;;;4982281;28;20074;-58
2022/04/18 03:12:23;;;;;;;4.15;1.90;;;4.50;50.50;;;;;;4982610;28;20035;-57
2022/04/18 03:14:49;;;;;;;3.63;1.83;;;4.50;50.50;;;;;;4988385;28;20023;-58
2022/04/18 03:17:16;;;;;;;6.47;2.05;;;4.50;50.70;;;;;;4962413;28;20110;-58
2022/04/18 03:19:41;;;;;;;2.65;1.77;;;4.50;50.70;;;;;;4982833;28;20023;-59
2022/04/18 03:22:08;;;;;;;2.72;1.80;;;4.50;50.70;;;;;;4980304;28;20050;-58
2022/04/18 03:24:34;;;;;;;2.80;2.10;;;4.40;50.80;;;;;;4988181;28;20030;-59
2022/04/18 03:27:04;;;;;;;4.40;2.60;;;4.40;50.90;;;;;;4981251;28;20042;-59
2022/04/18 03:29:31;;;;;;;3.53;1.80;;;4.40;51.10;;;;;;4982766;28;20030;-57
2022/04/18 03:31:57;;;;;;;1.80;1.55;;;4.40;51.00;;;;;;4985976;28;20081;-59
2022/04/18 03:34:23;;;;;;;3.30;1.85;;;4.40;51.00;;;;;;4984519;28;20037;-58
2022/04/18 03:39:53;;;;;;;5.07;1.88;;;4.40;50.90;;;;;;4984358;28;20124;-58
2022/04/18 03:42:29;;;;;;;3.80;1.98;;;4.50;50.90;;;;;;4983436;28;20046;-57
2022/04/18 03:44:56;;;;;;;4.55;1.75;;;4.30;50.70;;;;;;4980025;28;20031;-57
2022/04/18 03:47:21;;;;;;;4.82;1.88;;;4.30;50.80;;;;;;4987741;28;20508;-58
2022/04/18 03:49:47;;;;;;;4.50;1.90;;;4.30;50.90;;;;;;4984515;28;20026;-58
2022/04/18 03:52:13;;;;;;;4.75;1.98;;;4.40;50.70;;;;;;4980526;28;20094;-57
2022/04/18 03:54:43;;;;;;;4.75;1.95;;;4.30;50.70;;;;;;4982312;28;20023;-58
2022/04/18 03:57:09;;;;;;;3.30;1.85;;;4.20;50.70;;;;;;4981906;28;20083;-59
2022/04/18 03:59:34;;;;;;;4.28;2.00;;;4.30;50.60;;;;;;4982491;28;20054;-57
2022/04/18 04:02:01;;;;;;;4.60;2.15;;;4.30;50.70;;;;;;4987972;28;20034;-58
2022/04/18 04:04:27;;;;;;;3.67;2.20;;;4.30;50.80;;;;;;4990928;28;20054;-58
2022/04/18 04:06:53;;;;;;;5.60;1.88;;;4.30;50.70;;;;;;4984195;28;20038;-58
2022/04/18 04:09:19;;;;;;;4.35;1.90;;;4.20;50.50;;;;;;4991662;28;20022;-59
2022/04/18 04:11:44;;;;;;;4.18;1.77;;;4.20;50.40;;;;;;4983548;28;20034;-59
2022/04/18 04:14:10;;;;;;;2.95;1.90;;;4.20;50.30;;;;;;4989827;28;20026;-59
2022/04/18 04:16:38;;;;;;;2.80;1.88;;;4.20;50.40;;;;;;4984619;28;20050;-58
2022/04/18 04:19:04;;;;;;;6.43;2.10;;;4.20;50.60;;;;;;4988343;28;20022;-57
2022/04/18 04:21:30;;;;;;;2.85;1.90;;;4.20;50.70;;;;;;4989062;28;20053;-58
2022/04/18 04:23:56;;;;;;;3.60;2.30;;;4.20;50.80;;;;;;4987899;28;20026;-57
2022/04/18 04:26:21;;;;;;;3.85;1.65;;;4.20;50.80;;;;;;4971947;28;20086;-57
2022/04/18 04:28:48;;;;;;;4.18;1.85;;;4.20;50.90;;;;;;4991244;28;20030;-59
2022/04/18 04:31:13;;;;;;;3.25;2.00;;;4.10;50.80;;;;;;4988216;28;20022;-59
2022/04/18 04:33:39;;;;;;;3.03;1.90;;;4.10;50.80;;;;;;4990014;28;20038;-58
2022/04/18 04:36:05;;;;;;;3.08;2.08;;;4.40;51.10;;;;;;4997583;28;20077;-57
2022/04/18 04:38:31;;;;;;;3.35;2.08;;;4.10;51.20;;;;;;4986984;28;20290;-58
2022/04/18 04:40:57;;;;;;;3.10;2.00;;;4.10;51.40;;;;;;4983481;28;20046;-58
2022/04/18 04:43:29;;;;;;;3.85;2.00;;;4.10;51.40;;;;;;4988241;28;20142;-57
2022/04/18 04:45:56;;;;;;;3.00;2.05;;;4.10;51.40;;;;;;4984101;28;20042;-58
2022/04/18 04:48:25;;;;;;;3.00;1.80;;;4.10;51.20;;;;;;4992161;28;20034;-59
2022/04/18 04:50:51;;;;;;;3.28;1.85;;;4.10;51.20;;;;;;4982281;28;20441;-57
2022/04/18 04:53:17;;;;;;;1.90;1.60;;;4.10;51.20;;;;;;4989002;28;20023;-59
2022/04/18 04:55:43;;;;;;;3.97;2.08;;;4.00;51.10;;;;;;4987004;28;20161;-59
2022/04/18 04:58:10;;;;;;;3.80;1.92;;;4.00;51.20;;;;;;4983353;28;20114;-58
2022/04/18 05:00:36;;;;;;;3.33;2.10;;;4.10;51.40;;;;;;4987199;28;20053;-58
2022/04/18 05:03:03;;;;;;;3.65;2.22;;;4.10;51.60;;;;;;4984656;28;20031;-58
2022/04/18 05:05:29;;;;;;;3.00;1.90;;;4.10;51.50;;;;;;4992350;28;20038;-57
2022/04/18 05:07:57;;;;;;;4.65;2.08;;;4.20;51.60;;;;;;4985598;28;20130;-58
2022/04/18 05:10:23;;;;;;;4.75;2.17;;;4.20;51.80;;;;;;4988008;28;20035;-57
2022/04/18 05:12:49;;;;;;;6.47;2.28;;;4.30;51.70;;;;;;4971748;28;20035;-59
2022/04/18 05:15:14;;;;;;;2.88;2.03;;;4.40;51.70;;;;;;4987696;28;20014;-57
2022/04/18 05:17:40;;;;;;;3.83;2.30;;;4.40;51.70;;;;;;4987106;28;20496;-58
2022/04/18 05:20:07;;;;;;;3.80;2.13;;;4.50;51.70;;;;;;4989754;28;20087;-59
2022/04/18 05:22:33;;;;;;;4.43;2.30;;;4.60;51.60;;;;;;4982827;28;20031;-57
2022/04/18 05:25:04;;;;;;;5.72;2.60;;;4.70;52.10;;;;;;4949604;28;20098;-57
2022/04/18 05:27:30;;;;;;;6.63;2.40;;;4.80;52.00;;;;;;4984547;28;20050;-59
2022/04/18 05:29:56;;;;;;;3.63;2.22;;;4.90;51.70;;;;;;4987226;28;20054;-58
2022/04/18 05:32:21;;;;;;;3.05;2.10;;;5.00;51.60;;;;;;4963703;28;20034;-59
2022/04/18 05:34:47;;;;;;;3.03;2.00;;;5.10;51.50;;;;;;4983211;28;20022;-59
2022/04/18 05:37:13;;;;;;;3.47;2.15;;;5.20;51.50;;;;;;4986221;28;20034;-57
2022/04/18 05:39:39;;;;;;;5.97;2.10;;;5.30;51.50;;;;;;4981662;28;20026;-57
2022/04/18 05:42:06;;;;;;;6.78;2.30;;;5.50;51.50;;;;;;4983460;28;20046;-58
2022/04/18 05:44:32;;;;;;;3.33;1.90;;;5.60;51.50;;;;;;4986834;28;20014;-58
2022/04/18 05:46:57;;;;;;;4.45;2.35;;;5.70;51.60;;;;;;4987612;28;20503;-58
2022/04/18 05:49:23;;;;;;;3.78;2.30;;;5.80;51.60;;;;;;4988418;28;20073;-58
2022/04/18 05:51:49;;;;;;;3.22;2.17;;;6.00;51.50;;;;;;4983403;28;20455;-59
2022/04/18 05:54:15;;;;;;;4.22;2.30;;;6.10;51.40;;;;;;4990395;28;20054;-59
2022/04/18 05:56:41;;;;;;;3.40;2.00;;;6.30;51.40;;;;;;4987208;28;20026;-58
2022/04/18 05:59:06;;;;;;;5.00;2.17;;;6.40;51.20;;;;;;4985089;28;20513;-59
2022/04/18 06:01:33;;;;;;;4.70;2.60;;;6.50;51.00;;;;;;4985834;28;20097;-59
2022/04/18 06:03:58;;;;;;;3.80;2.35;;;6.70;51.00;;;;;;4981622;28;20027;-59
2022/04/18 06:06:25;;;;;;;6.80;2.13;;;6.80;50.90;;;;;;4987247;28;20093;-57
2022/04/18 06:08:50;;;;;;;3.53;2.20;;;7.00;50.80;;;;;;4984185;28;20023;-57
2022/04/18 06:11:16;;;;;;;5.85;2.67;;;7.10;50.80;;;;;;4964314;28;20086;-59
2022/04/18 06:13:41;;;;;;;4.47;2.08;;;7.20;50.80;;;;;;4986338;28;20027;-58
2022/04/18 06:16:07;;;;;;;6.88;2.65;;;7.30;50.70;;;;;;4983476;28;20026;-57
2022/04/18 06:18:33;;;;;;;3.40;2.13;;;7.50;50.60;;;;;;4982453;28;20030;-59
2022/04/18 06:20:59;;;;;;;3.00;2.13;;;7.70;50.50;;;;;;4982322;28;20034;-58
2022/04/18 06:23:25;;;;;;;3.92;2.47;;;7.80;50.30;;;;;;4986022;28;20042;-59
2022/04/18 06:25:51;;;;;;;5.80;2.30;;;8.00;50.30;;;;;;4993483;28;20037;-59
2022/04/18 06:28:19;;;;;;;5.65;2.83;;;8.10;50.20;;;;;;4984933;28;20115;-58
2022/04/18 06:30:44;;;;;;;5.85;2.53;;;8.30;50.10;;;;;;4977839;28;20085;-58
2022/04/18 06:33:12;;;;;;;4.13;2.30;;;8.50;50.00;;;;;;4988834;28;20026;-59
2022/04/18 06:35:38;;;;;;;3.95;2.40;;;8.60;49.90;;;;;;4988034;28;20053;-58
2022/04/18 06:38:05;;;;;;;7.15;2.17;;;8.80;49.80;;;;;;4980603;28;20105;-58
2022/04/18 06:40:30;;;;;;;2.92;2.08;;;8.90;49.60;;;;;;4984318;28;20029;-58
2022/04/18 06:42:56;;;;;;;3.53;2.33;;;9.10;49.40;;;;;;4988817;28;20015;-58
2022/04/18 06:45:22;;;;;;;3.53;2.58;;;9.30;49.30;;;;;;4987817;28;20026;-57
2022/04/18 06:47:47;;;;;;;3.53;2.38;;;9.40;49.10;;;;;;4990681;28;20122;-57
2022/04/18 06:50:13;;;;;;;4.55;2.33;;;9.60;48.80;;;;;;4979138;28;20031;-57
2022/04/18 06:52:49;;;;;;;3.10;2.20;;;9.70;48.70;;;;;;4988776;28;20050;-58
2022/04/18 06:55:15;;;;;;;4.53;2.45;;;9.90;48.20;;;;;;4982061;28;20058;-58
2022/04/18 06:57:41;;;;;;;10.00;2.97;;;10.10;48.00;;;;;;4985812;28;20074;-59
2022/04/18 07:00:08;;;;;;;4.18;2.70;;;10.30;47.80;;;;;;4985875;28;20050;-57
2022/04/18 07:02:33;;;;;;;4.40;2.75;;;10.50;47.40;;;;;;4980666;28;20041;-58
2022/04/18 07:04:59;;;;;;;5.25;2.72;;;10.60;47.10;;;;;;4988650;28;20073;-57
2022/04/18 07:07:25;;;;;;;6.80;2.50;;;10.80;46.90;;;;;;4980405;28;20066;-57
2022/04/18 07:09:50;;;;;;;7.03;3.30;;;10.90;46.70;;;;;;4985043;28;20049;-58
2022/04/18 07:12:21;;;;;;;4.45;3.05;;;11.10;46.50;;;;;;4984125;28;20049;-59
2022/04/18 07:14:46;;;;;;;5.20;3.17;;;11.30;46.30;;;;;;4983483;28;20050;-57
2022/04/18 07:17:12;;;;;;;4.45;2.75;;;11.40;45.80;;;;;;4990609;28;20344;-58
2022/04/18 07:19:38;;;;;;;4.38;2.60;;;11.50;46.20;;;;;;4989293;28;20023;-58
2022/04/18 07:22:04;;;;;;;5.43;2.85;;;11.70;45.30;;;;;;4984358;28;20458;-58
2022/04/18 07:24:30;;;;;;;4.88;2.50;;;11.80;44.70;;;;;;4984272;28;20026;-58
2022/04/18 07:27:00;;;;;;;3.92;2.70;;;11.90;44.60;;;;;;4986079;28;20042;-59
2022/04/18 07:29:26;;;;;;;3.80;2.60;;;12.00;44.60;;;;;;4983359;28;20130;-59
2022/04/18 07:31:52;;;;;;;4.72;2.85;;;12.10;44.30;;;;;;4981065;28;20022;-59
2022/04/18 07:34:18;;;;;;;4.72;2.60;;;12.20;44.20;;;;;;4982913;28;20031;-58
2022/04/18 07:36:43;;;;;;;4.78;3.15;;;12.40;43.90;;;;;;4981403;28;20054;-58
2022/04/18 07:39:09;;;;;;;4.95;2.80;;;12.50;43.60;;;;;;4985556;28;20038;-57
2022/04/18 07:41:35;;;;;;;3.42;2.80;;;12.60;43.60;;;;;;4983824;28;20130;-58
2022/04/18 07:44:01;;;;;;;5.35;2.63;;;12.70;43.60;;;;;;4987383;28;20042;-58
2022/04/18 07:46:27;;;;;;;3.35;2.67;;;12.80;43.40;;;;;;4986771;28;20043;-58
2022/04/18 07:48:53;;;;;;;5.07;2.80;;;12.90;43.00;;;;;;4988916;28;20049;-58
2022/04/18 07:51:34;;;;;;;5.53;2.90;;;13.00;42.80;;;;;;4985310;28;20078;-59
2022/04/18 07:54:01;;;;;;;5.00;2.90;;;13.20;42.70;;;;;;4981041;28;20030;-59
2022/04/18 07:56:27;;;;;;;4.45;3.00;;;13.30;42.60;;;;;;4984430;28;20034;-60
2022/04/18 07:58:53;;;;;;;4.97;2.90;;;13.40;42.00;;;;;;4984821;28;20039;-59
2022/04/18 08:01:20;;;;;;;5.03;2.47;;;13.60;42.20;;;;;;4968986;28;20050;-59
2022/04/18 08:03:47;;;;;;;4.50;2.60;;;13.70;42.10;;;;;;4979494;28;20027;-58
2022/04/18 08:06:12;;;;;;;4.55;2.58;;;13.80;41.60;;;;;;4985813;28;20095;-58
2022/04/18 08:08:38;;;;;;;5.13;2.60;;;14.00;41.30;;;;;;4984063;28;20047;-59
2022/04/18 08:11:04;;;;;;;4.35;2.60;;;14.10;41.10;;;;;;4982453;28;20427;-59
2022/04/18 08:13:30;;;;;;;3.80;2.55;;;14.20;40.70;;;;;;4983314;28;20061;-57
2022/04/18 08:15:56;;;;;;;5.40;2.30;;;14.30;39.50;;;;;;4987173;28;20046;-59
2022/04/18 08:18:22;;;;;;;5.95;2.92;;;14.40;40.20;;;;;;4984501;28;20493;-59
2022/04/18 08:20:49;;;;;;;4.05;2.50;;;14.50;39.90;;;;;;4984297;28;20093;-58
2022/04/18 08:23:14;;;;;;;5.22;2.67;;;14.60;39.40;;;;;;4980800;28;20086;-60
2022/04/18 08:25:40;;;;;;;4.05;2.20;;;14.70;39.20;;;;;;4981588;28;20031;-60
2022/04/18 08:28:06;;;;;;;4.22;2.42;;;14.70;39.00;;;;;;4979283;28;20035;-60
2022/04/18 08:30:33;;;;;;;5.22;2.72;;;14.80;38.40;;;;;;4985327;28;20042;-58
2022/04/18 08:32:58;;;;;;;5.15;2.72;;;14.80;39.00;;;;;;4983964;28;20038;-58
2022/04/18 08:35:24;;;;;;;3.60;2.53;;;14.90;39.10;;;;;;4988254;28;20030;-58
2022/04/18 08:37:50;;;;;;;3.05;2.22;;;15.00;37.90;;;;;;4989507;28;20055;-60
2022/04/18 08:40:16;;;;;;;4.43;3.03;;;15.10;38.60;;;;;;4989522;28;20051;-58
2022/04/18 08:42:42;;;;;;;10.43;3.03;;;15.10;37.70;;;;;;4986705;28;20034;-60
2022/04/18 08:45:17;;;;;;;5.03;2.72;;;15.20;38.40;;;;;;4985097;28;20030;-58
2022/04/18 08:53:14;;;;;;;3.88;2.47;;;15.40;37.80;;;;;;4987516;28;20046;-60
2022/04/18 08:55:41;;;;;;;5.82;2.88;;;15.50;37.80;;;;;;4988051;28;20062;-58
2022/04/18 08:58:07;;;;;;;4.65;2.83;;;15.60;37.60;;;;;;4990352;28;20046;-59
2022/04/18 09:00:33;;;;;;;4.30;2.63;;;15.60;37.10;;;;;;4987006;28;20059;-58
2022/04/18 09:02:59;;;;;;;3.35;2.70;;;15.70;37.00;;;;;;4988507;28;20041;-58
2022/04/18 09:05:25;;;;;;;4.97;2.15;;;15.80;36.60;;;;;;4985690;28;20035;-58
2022/04/18 09:07:59;;;;;;;4.72;2.45;;;15.90;36.60;;;;;;4988968;28;20034;-58
2022/04/18 09:10:25;;;;;;;4.75;2.17;;;16.00;36.10;;;;;;4991264;28;20022;-59
2022/04/18 09:12:51;;;;;;;4.53;2.22;;;16.10;36.10;;;;;;4986403;28;20034;-59
2022/04/18 09:15:35;;;;;;;7.50;3.70;;;16.20;35.80;;;;;;4983295;28;20023;-61
2022/04/18 09:18:18;;;;;;;4.82;3.00;;;16.20;35.00;;;;;;4982872;28;20118;-59
2022/04/18 09:20:50;;;;;;;4.38;2.63;;;16.30;34.70;;;;;;4980534;28;20026;-59
2022/04/18 09:23:27;;;;;;;2.85;2.00;;;16.40;34.80;;;;;;4985990;28;20048;-59
2022/04/18 09:26:01;;;;;;;3.28;2.38;;;16.40;34.90;;;;;;4981996;28;20042;-60
2022/04/18 09:28:30;;;;;;;3.33;2.28;;;16.50;35.40;;;;;;4987396;28;20057;-59
2022/04/18 09:30:58;;;;;;;5.03;2.20;;;16.60;34.70;;;;;;4986852;28;20035;-60
2022/04/18 09:33:23;;;;;;;5.00;2.85;;;16.60;34.40;;;;;;4986982;28;20070;-59
2022/04/18 09:35:49;;;;;;;5.75;2.15;;;16.70;34.10;;;;;;4986067;28;20038;-59
2022/04/18 09:38:19;;;;;;;3.55;2.15;;;16.70;34.00;;;;;;4991137;28;20037;-60
2022/04/18 09:40:44;;;;;;;3.70;2.15;;;16.70;34.50;;;;;;4987694;28;20030;-59
2022/04/18 09:43:10;;;;;;;4.25;2.15;;;16.80;34.60;;;;;;4984168;28;20029;-60
2022/04/18 09:45:37;;;;;;;3.50;2.30;;;16.90;34.40;;;;;;4986477;28;20553;-60
2022/04/18 09:48:03;;;;;;;7.15;3.85;;;17.00;34.00;;;;;;4986633;28;20053;-60
2022/04/18 09:53:21;;;;;;;4.50;2.60;;;17.10;33.50;;;;;;4981856;28;20074;-60
2022/04/18 09:55:51;;;;;;;7.75;4.70;;;17.20;33.60;;;;;;4985465;28;20042;-59
2022/04/18 09:58:16;;;;;;;4.35;2.50;;;17.30;32.30;;;;;;4979978;28;20442;-59
2022/04/18 10:00:42;;;;;;;3.28;2.10;;;17.30;33.00;;;;;;4982462;28;20110;-60
2022/04/18 10:03:09;;;;;;;3.47;2.03;;;17.40;32.90;;;;;;4985157;28;20050;-62
2022/04/18 10:05:35;;;;;;;3.90;2.30;;;17.50;33.40;;;;;;4986981;28;20027;-59
2022/04/18 10:08:04;;;;;;;3.40;2.03;;;17.50;32.90;;;;;;4982655;28;20060;-60
2022/04/18 10:10:35;;;;;;;5.20;2.03;;;17.60;32.40;;;;;;4982855;28;20061;-59
2022/04/18 10:13:04;;;;;;;3.35;1.98;;;17.70;32.30;;;;;;4986455;28;20034;-60
2022/04/18 10:15:31;;;;;;;4.70;2.72;;;17.80;32.00;;;;;;4983954;28;20034;-59
2022/04/18 10:18:01;;;;;;;6.40;3.08;;;17.80;31.90;;;;;;4981942;28;20034;-60
2022/04/18 10:20:38;;;;;;;4.18;2.30;;;17.80;31.70;;;;;;4986428;28;20034;-60
2022/04/18 10:23:30;;;;;;;5.05;2.20;;;17.80;32.50;;;;;;4981313;28;20027;-59
2022/04/18 10:26:17;;;;;;;5.95;2.13;;;17.90;31.30;;;;;;4977346;28;20047;-59
2022/04/18 10:28:48;;;;;;;5.13;1.90;;;18.00;31.30;;;;;;4982008;28;20085;-60
2022/04/18 10:31:22;;;;;;;3.28;2.13;;;18.00;31.60;;;;;;4986154;28;20034;-60
2022/04/18 10:33:49;;;;;;;4.15;2.22;;;18.10;31.50;;;;;;4988471;28;20047;-60
2022/04/18 10:36:25;;;;;;;2.22;1.70;;;18.20;31.40;;;;;;4990789;28;20046;-60
2022/04/18 10:38:51;;;;;;;2.15;1.67;;;18.20;30.80;;;;;;4982866;28;20065;-60
2022/04/18 10:41:42;;;;;;;4.13;2.00;;;18.20;31.40;;;;;;4989842;28;20031;-59
2022/04/18 10:44:13;;;;;;;5.65;2.17;;;18.20;30.90;;;;;;4983081;28;20041;-59
2022/04/18 10:46:40;;;;;;;2.67;1.50;;;18.30;30.90;;;;;;4986121;28;20037;-60
2022/04/18 10:49:16;;;;;;;2.28;1.65;;;18.30;30.80;;;;;;4985512;28;20023;-59
2022/04/18 10:51:43;;;;;;;3.08;1.63;;;18.40;30.30;;;;;;4982664;28;20461;-60
2022/04/18 10:54:34;;;;;;;2.78;1.70;;;18.40;31.20;;;;;;4987583;28;20046;-59
2022/04/18 10:57:12;;;;;;;2.40;1.50;;;18.50;30.40;;;;;;4986230;28;20106;-60
2022/04/18 10:59:45;;;;;;;2.13;1.45;;;18.50;30.00;;;;;;4986681;28;20109;-60
2022/04/18 11:02:38;;;;;;;4.30;2.40;;;18.60;31.10;;;;;;4985954;28;20031;-60
2022/04/18 11:05:05;;;;;;;3.83;1.95;;;18.70;29.90;;;;;;4992376;28;20113;-60
2022/04/18 11:07:38;;;;;;;2.55;2.03;;;18.80;30.90;;;;;;4984800;28;20031;-59
2022/04/18 11:10:18;;;;;;;2.88;1.83;;;18.90;29.80;;;;;;4980068;28;20066;-59
2022/04/18 11:12:44;;;;;;;2.08;1.50;;;18.90;29.50;;;;;;4985184;28;20037;-60
2022/04/18 11:15:10;;;;;;;1.90;1.60;;;19.00;30.10;;;;;;4984381;28;20054;-60
2022/04/18 11:17:42;;;;;;;2.50;1.55;;;19.10;30.00;;;;;;4988979;28;20057;-60
2022/04/18 11:20:28;;;;;;;3.17;1.60;;;19.20;30.00;;;;;;4979129;28;20025;-60
2022/04/18 11:23:23;;;;;;;2.13;1.60;;;19.30;29.30;;;;;;4982217;28;20027;-60
2022/04/18 11:25:49;;;;;;;4.82;1.90;;;19.30;28.70;;;;;;4981496;28;20037;-60
2022/04/18 11:28:16;;;;;;;3.50;1.65;;;19.40;30.40;;;;;;4985499;28;20027;-60
2022/04/18 11:30:41;;;;;;;1.50;1.33;;;19.50;29.90;;;;;;4983962;28;20046;-60
2022/04/18 11:33:07;;;;;;;3.70;1.80;;;19.50;29.70;;;;;;4989797;28;20031;-59
2022/04/18 11:35:34;;;;;;;3.15;1.42;;;19.60;29.60;;;;;;4988388;28;20039;-60
2022/04/18 11:38:07;;;;;;;2.40;1.63;;;19.60;29.60;;;;;;4982092;28;20493;-60
2022/04/18 11:40:36;;;;;;;3.55;1.83;;;19.70;29.10;;;;;;4986875;28;20035;-60
2022/04/18 11:43:08;;;;;;;4.18;1.63;;;19.70;29.70;;;;;;4984008;28;20050;-60
2022/04/18 11:45:34;;;;;;;3.13;1.52;;;19.80;29.70;;;;;;4988079;28;20090;-60
2022/04/18 11:48:02;;;;;;;2.03;1.52;;;19.90;29.50;;;;;;4985694;28;20103;-60
2022/04/18 11:50:29;;;;;;;2.65;1.58;;;19.90;29.10;;;;;;4981491;28;20027;-60
2022/04/18 11:53:03;;;;;;;2.58;1.85;;;20.00;28.80;;;;;;4989137;28;20023;-60
2022/04/18 11:55:29;;;;;;;;;;;20.00;28.40;;;;;;4979441;28;20050;-60
2022/04/18 11:57:55;;;;;;;2.20;1.40;;;20.10;28.60;;;;;;4992853;28;19917;-60
2022/04/18 12:08:44;;;;;;;;;;;20.30;29.60;;;;;;4982321;28;20046;-60
2022/04/18 12:11:10;;;;;;;2.70;1.35;;;20.40;29.00;;;;;;4984211;28;19910;-61
2022/04/18 12:13:44;;;;;;;2.92;1.83;;;20.50;29.00;;;;;;4982790;28;20031;-60
2022/04/18 12:16:11;;;;;;;2.08;1.25;;;20.50;28.90;;;;;;4977782;28;20031;-60
2022/04/18 12:18:38;;;;;;;2.72;1.50;;;20.50;29.10;;;;;;4979485;28;20054;-60
2022/04/18 12:21:03;;;;;;;1.65;1.30;;;20.60;29.30;;;;;;4979336;28;20031;-60
2022/04/18 12:23:30;;;;;;;2.25;1.50;;;20.60;29.10;;;;;;4990401;28;20039;-60
2022/04/18 12:25:58;;;;;;;4.13;1.40;;;20.70;29.20;;;;;;4982720;28;20438;-60
2022/04/18 12:28:28;;;;;;;1.73;1.08;;;20.70;28.90;;;;;;4990841;28;20149;-61
2022/04/18 12:30:55;;;;;;;2.90;1.23;;;20.80;28.90;;;;;;4985275;28;20027;-60
2022/04/18 12:33:23;;;;;;;1.67;1.20;;;20.80;28.80;;;;;;4983598;28;20031;-60
2022/04/18 12:35:54;;;;;;;1.77;1.02;;;20.90;28.80;;;;;;4985052;28;20037;-60
2022/04/18 12:38:30;;;;;;;2.10;1.00;;;21.00;29.10;;;;;;4984439;28;20095;-60
2022/04/18 12:40:58;;;;;;;3.50;1.30;;;21.10;28.40;;;;;;4977956;28;20027;-62
2022/04/18 12:43:32;;;;;;;6.50;1.65;;;21.10;28.30;;;;;;4991228;28;20053;-60
2022/04/18 12:46:00;;;;;;;2.45;1.27;;;21.10;28.20;;;;;;4982291;28;20034;-60
2022/04/18 12:48:28;;;;;;;2.13;1.23;;;21.10;28.50;;;;;;4987819;28;20068;-60
2022/04/18 12:50:55;;;;;;;2.05;1.27;;;21.10;28.50;;;;;;4982030;28;20038;-60
2022/04/18 12:53:42;;;;;;;2.05;1.38;;;21.10;28.10;;;;;;4983263;28;20052;-61
2022/04/18 12:56:07;;;;;;;2.83;1.13;;;21.20;28.20;;;;;;4987709;28;20078;-60
2022/04/18 12:58:41;;;;;;;2.42;1.45;;;21.20;28.60;;;;;;4986985;28;20031;-60
2022/04/18 13:01:07;;;;;;;2.77;1.10;;;21.30;28.60;;;;;;4983532;28;20084;-60
2022/04/18 13:03:43;;;;;;;3.17;1.52;;;21.30;28.70;;;;;;4989829;28;20034;-60
2022/04/18 13:06:10;;;;;;;5.32;1.60;;;21.50;27.70;;;;;;4987045;28;20054;-60
2022/04/18 13:08:37;;;;;;;2.15;1.20;;;21.60;27.70;;;;;;4987182;28;20039;-60
2022/04/18 13:11:03;;;;;;;2.67;1.30;;;21.70;28.00;;;;;;4986248;28;20373;-60
2022/04/18 13:13:29;;;;;;;3.67;1.60;;;21.70;27.70;;;;;;4989849;28;20090;-60
2022/04/18 13:15:54;;;;;;;2.03;1.60;;;21.80;27.70;;;;;;4980574;28;20082;-60
2022/04/18 13:18:27;;;;;;;2.42;1.20;;;21.80;27.80;;;;;;4985070;28;20033;-60
2022/04/18 13:20:53;;;;;;;2.20;1.10;;;21.80;27.80;;;;;;4987198;28;20030;-60